EGFFLEAL

Guest
Details From EGFF - Cardiff
To LEAL - Alicante
Flight Number -
Tags Generated
Created
Modified
Stats Distance 797 nm / 1,476 km
Max Altitude 0 ft / 0 m
Waypoints 5
Social Downloads 5
Likes 0
Share VATSIM

Download

Looking for another format? Having issues loading an existing format? Contact us
Advertisement - Login to hide

Notes

Generated

Route

EGFF ERIGA NO R2305 LEAL

ID Type Via Altitude Latitude Longitude Leg Dist Tot Dist Heading (true) Name
O EGFF APT - 0 ft / 0 m 51.40151˚ -3.35867˚ - 0 nm - -
ERIGA FIX - 0 ft / 0 m 46.86000˚ -2.36306˚ 275 nm 275 nm 171° / 172° -
NO NDB - 0 ft / 0 m 42.74999˚ -1.63167˚ 248 nm 524 nm 173° / 173° PAMPLONA NDB
R2305 FIX - 0 ft / 0 m 38.28452˚ -0.57500˚ 272 nm 796 nm 169° / 170° -
O LEAL APT - 0 ft / 0 m 38.28452˚ -0.57500˚ 0 nm 796 nm 270° / 270° -

Altitude Profile

Advertisement - Login to hide

Weather


0- 5 10 15 20 25 30 35+ Temperature / ° C

Clouds and Precipitation
Forecast for 2017-12-11 06:00 UTC. Updated an hour ago

Ground ~20,000 ft ~40,000 ft Winds

EGFF

Details ICAO EGFF (CWL)
Name Cardiff
Region United Kingdom
Timezone Europe/London (UTC+0.0)
Stats Elevation 220 ft / 67 m (AMSL)
Location 51.396565° -3.343202°
Runways 1
Magnetic Variation 1.580° W

METAR

EGFF 110350Z AUTO 04020KT 9999 BKN012 01/00 Q0979

Decode

TAF

TAF AMD EGFF 110134Z 1101/1124 03013KT 9999 -RA SCT006 BKN010 TEMPO 1101/1106 3000 RADZ BR BKN003 TEMPO 1103/1113 01015G27KT BECMG 1106/1109 FEW018 BECMG 1113/1116 33008KT TEMPO 1116/1124 8000

Decode

Departure Runways

ID Width Length Bearing (true) Bearing (mag) Surface Threshold Offset Overrun Length
12 131 ft / 40 m 7,831 ft / 2,387 m 116.82° 118.40° Asphalt 715 ft / 218 m 0 ft / 0 m
30 131 ft / 40 m 7,831 ft / 2,387 m 296.84° 298.42° Asphalt 594 ft / 181 m 0 ft / 0 m

LEAL

Details ICAO LEAL (ALC)
Name Alicante
Region Spain
Timezone Europe/Madrid (UTC+1.0)
Stats Elevation 141 ft / 43 m (AMSL)
Location 38.282169° -0.558157°
Runways 1
Magnetic Variation 0.182° E

METAR

LEAL 110400Z 26003KT 220V290 CAVOK 13/07 Q0997 NOSIG

Decode

TAF

TAF TAF LEAL 102300Z 1100/1124 26008KT 9999 FEW030 SCT050 TX18/1113Z TN07/1124Z TEMPO 1108/1112 30024G38KT 4000 RA

Decode

Destination Runways

ID Width Length Bearing (true) Bearing (mag) Surface Threshold Offset Overrun Length
10 148 ft / 45 m 9,799 ft / 2,987 m 100.07° 99.89° Asphalt 0 ft / 0 m 164 ft / 50 m
28 148 ft / 45 m 9,799 ft / 2,987 m 280.09° 279.91° Asphalt 0 ft / 0 m 197 ft / 60 m

Approach Navaids

Runway Type Ident Frequency Range Bearing (true) Bearing (mag) Slope Elevation
10 Localiser IAT 110.30 MHz 18 nm / 33 km 100.09° 99.91° - 29 ft / 9 m (AMSL)
10 Glidescope IAT 110.30 MHz 10 nm / 19 km 100.09° 99.91° 3.00° 129 ft / 39 m (AMSL)
10 DME IAT 110.30 MHz 18 nm / 33 km - - - 129 ft / 39 m (AMSL)

Popular Alternatives